createdAt,value
2019-03-17T00:00:17.714Z,97.00
2019-03-17T00:02:46.116Z,96.80
2019-03-17T00:05:14.505Z,96.50
2019-03-17T00:07:43.081Z,96.80
2019-03-17T00:10:11.743Z,96.80
2019-03-17T00:12:40.124Z,96.70
2019-03-17T00:15:08.734Z,96.70
2019-03-17T00:17:37.133Z,96.50
2019-03-17T00:20:06.673Z,95.90
2019-03-17T00:22:35.097Z,95.80
2019-03-17T00:25:09.217Z,95.70
2019-03-17T00:27:34.528Z,95.20
2019-03-17T00:30:03.361Z,95.10
2019-03-17T00:32:31.758Z,95.20
2019-03-17T00:35:00.377Z,95.20
2019-03-17T00:37:28.880Z,95.10
2019-03-17T00:39:57.278Z,95.00
2019-03-17T00:42:25.737Z,94.90
2019-03-17T00:44:54.174Z,94.80
2019-03-17T00:47:22.679Z,94.30
2019-03-17T00:49:51.810Z,94.20
2019-03-17T00:52:20.450Z,94.40
2019-03-17T00:54:49.339Z,94.50
2019-03-17T00:57:18.176Z,94.80
2019-03-17T00:59:46.588Z,94.60
2019-03-17T01:02:15.017Z,94.70
2019-03-17T01:04:55.468Z,94.20
2019-03-17T01:07:13.593Z,94.20
2019-03-17T01:09:42.008Z,94.40
2019-03-17T01:12:10.496Z,94.50
2019-03-17T01:14:38.889Z,94.10
2019-03-17T01:17:07.513Z,93.90
2019-03-17T01:19:35.942Z,93.50
2019-03-17T01:22:04.835Z,93.50
2019-03-17T01:24:33.841Z,93.20
2019-03-17T01:27:02.647Z,93.40
2019-03-17T01:29:34.063Z,93.50
2019-03-17T01:32:02.869Z,93.30
2019-03-17T01:34:31.792Z,93.20
2019-03-17T01:37:00.243Z,93.10
2019-03-17T01:39:28.672Z,93.20
2019-03-17T01:41:57.106Z,92.90
2019-03-17T01:44:25.510Z,93.30
2019-03-17T01:46:53.901Z,93.30
2019-03-17T01:49:22.361Z,93.60
2019-03-17T01:51:50.873Z,93.00
2019-03-17T01:54:19.269Z,93.00
2019-03-17T01:56:47.817Z,92.90
2019-03-17T01:59:16.212Z,93.00
2019-03-17T02:01:44.778Z,93.10
2019-03-17T02:04:13.207Z,92.50
2019-03-17T02:06:41.597Z,92.90
2019-03-17T02:09:10.429Z,92.50
2019-03-17T02:11:39.351Z,92.50
2019-03-17T02:14:08.905Z,92.60
2019-03-17T02:16:38.039Z,92.90
2019-03-17T02:19:06.817Z,92.80
2019-03-17T02:21:35.706Z,92.40
2019-03-17T02:24:04.417Z,92.50
2019-03-17T02:26:32.813Z,92.70
2019-03-17T02:29:01.209Z,92.90
2019-03-17T02:31:29.643Z,93.00
2019-03-17T02:33:58.038Z,93.10
2019-03-17T02:36:26.442Z,93.50
2019-03-17T02:38:55.081Z,93.80
2019-03-17T02:41:23.473Z,93.90
2019-03-17T02:43:51.876Z,94.10
2019-03-17T02:46:20.324Z,94.20
2019-03-17T02:48:48.714Z,94.10
2019-03-17T02:51:17.132Z,93.80
2019-03-17T02:53:45.588Z,93.40
2019-03-17T02:56:13.985Z,93.50
2019-03-17T02:58:42.381Z,93.20
2019-03-17T03:01:10.813Z,93.10
2019-03-17T03:03:39.278Z,93.40
2019-03-17T03:06:07.680Z,93.20
2019-03-17T03:08:36.458Z,93.20
2019-03-17T03:11:04.854Z,93.20
2019-03-17T03:13:33.244Z,93.10
2019-03-17T03:16:05.364Z,93.10
2019-03-17T03:18:32.108Z,92.80
2019-03-17T03:21:00.510Z,92.60
2019-03-17T03:23:28.937Z,92.60
2019-03-17T03:25:57.329Z,92.30
2019-03-17T03:28:25.886Z,92.30
2019-03-17T03:30:54.280Z,91.80
2019-03-17T03:33:22.686Z,91.80
2019-03-17T03:35:51.151Z,91.80
2019-03-17T03:38:19.551Z,91.50
2019-03-17T03:40:47.972Z,91.60
2019-03-17T03:43:16.431Z,91.60
2019-03-17T03:45:44.824Z,91.60
2019-03-17T03:48:13.299Z,91.70
2019-03-17T03:50:41.947Z,91.50
2019-03-17T03:53:10.343Z,91.70
2019-03-17T03:55:41.967Z,91.70
2019-03-17T03:58:08.904Z,91.90
2019-03-17T04:00:37.390Z,92.00
2019-03-17T04:03:05.807Z,92.20
2019-03-17T04:05:34.259Z,92.40
2019-03-17T04:08:02.655Z,92.70
2019-03-17T04:10:31.054Z,93.00
2019-03-17T04:12:59.507Z,93.50
2019-03-17T04:15:27.895Z,93.20
2019-03-17T04:17:56.362Z,93.20
2019-03-17T04:20:24.804Z,93.00
2019-03-17T04:22:53.199Z,93.10
2019-03-17T04:25:21.609Z,93.10
2019-03-17T04:27:50.071Z,93.50
2019-03-17T04:30:18.467Z,93.10
2019-03-17T04:32:46.870Z,93.40
2019-03-17T04:35:15.324Z,93.30
2019-03-17T04:37:43.728Z,93.50
2019-03-17T04:40:12.297Z,93.30
2019-03-17T04:42:40.766Z,93.20
2019-03-17T04:45:09.597Z,93.10
2019-03-17T04:47:37.994Z,93.10
2019-03-17T04:50:08.606Z,93.10
2019-03-17T04:52:37.008Z,93.10
2019-03-17T04:55:07.041Z,93.00
2019-03-17T04:57:35.494Z,92.90
2019-03-17T05:00:06.503Z,92.90
2019-03-17T05:02:34.906Z,92.60
2019-03-17T05:05:03.814Z,92.90
2019-03-17T05:07:32.204Z,92.50
2019-03-17T05:10:00.614Z,92.60
2019-03-17T05:12:29.055Z,92.70
2019-03-17T05:14:57.562Z,92.60
2019-03-17T05:17:26.032Z,92.60
2019-03-17T05:19:54.741Z,92.60
2019-03-17T05:22:23.148Z,92.70
2019-03-17T05:24:51.586Z,92.30
2019-03-17T05:27:20.020Z,92.50
2019-03-17T05:29:48.422Z,92.40
2019-03-17T05:32:16.854Z,92.40
2019-03-17T05:34:45.244Z,92.50
2019-03-17T05:37:13.660Z,92.60
2019-03-17T05:39:42.096Z,92.50
2019-03-17T05:42:10.563Z,92.50
2019-03-17T05:44:38.974Z,92.70
2019-03-17T05:47:07.361Z,92.90
2019-03-17T05:49:35.814Z,92.90
2019-03-17T05:52:04.564Z,93.00
2019-03-17T05:54:32.958Z,93.20
2019-03-17T05:57:01.414Z,93.40
2019-03-17T05:59:29.813Z,93.50
2019-03-17T06:01:58.205Z,93.70
2019-03-17T06:04:26.657Z,93.70
2019-03-17T06:06:55.066Z,93.70
2019-03-17T06:09:23.453Z,94.00
2019-03-17T06:11:51.889Z,94.00
2019-03-17T06:14:20.453Z,94.10
2019-03-17T06:16:48.866Z,93.90
2019-03-17T06:19:17.360Z,94.20
2019-03-17T06:21:45.745Z,94.30
2019-03-17T06:24:14.209Z,94.40
2019-03-17T06:26:42.651Z,94.70
2019-03-17T06:29:11.101Z,94.90
2019-03-17T06:31:39.501Z,95.00
2019-03-17T06:34:07.910Z,95.10
2019-03-17T06:36:36.351Z,95.20
2019-03-17T06:39:06.736Z,95.40
2019-03-17T06:41:35.144Z,95.20
2019-03-17T06:44:03.708Z,95.30
2019-03-17T06:46:32.798Z,95.30
2019-03-17T06:49:01.370Z,95.00
2019-03-17T06:51:29.841Z,95.10
2019-03-17T06:53:58.271Z,95.10
2019-03-17T06:56:26.710Z,95.10
2019-03-17T06:58:55.191Z,95.00
2019-03-17T07:01:23.593Z,95.10
2019-03-17T07:03:52.034Z,95.10
2019-03-17T07:06:20.442Z,95.30
2019-03-17T07:08:48.857Z,95.40
2019-03-17T07:11:17.499Z,95.50
2019-03-17T07:13:45.905Z,95.60
2019-03-17T07:16:14.312Z,95.80
2019-03-17T07:18:42.940Z,96.40
2019-03-17T07:21:11.338Z,96.40
2019-03-17T07:23:39.897Z,96.60
2019-03-17T07:26:08.972Z,96.40
2019-03-17T07:28:37.374Z,96.30
2019-03-17T07:31:05.778Z,96.70
2019-03-17T07:33:34.659Z,96.80
2019-03-17T07:36:03.078Z,97.30
2019-03-17T07:38:31.585Z,96.40
2019-03-17T07:41:00.295Z,96.50
2019-03-17T07:43:28.689Z,96.70
2019-03-17T07:45:57.086Z,96.50
2019-03-17T07:48:25.554Z,95.40
2019-03-17T07:50:53.944Z,95.50
2019-03-17T07:53:22.336Z,95.60
2019-03-17T07:55:50.779Z,95.70
2019-03-17T07:58:19.179Z,96.60
2019-03-17T08:00:47.866Z,96.40
2019-03-17T08:03:16.399Z,96.30
2019-03-17T08:05:44.790Z,96.00
2019-03-17T08:08:13.187Z,96.10
2019-03-17T08:10:41.969Z,95.60
2019-03-17T08:13:10.370Z,95.70
2019-03-17T08:15:39.836Z,95.50
2019-03-17T08:18:08.882Z,95.90
2019-03-17T08:20:37.314Z,96.60
2019-03-17T08:23:05.773Z,96.90
2019-03-17T08:25:34.310Z,97.20
2019-03-17T08:28:02.775Z,98.70
2019-03-17T08:30:31.178Z,99.90
2019-03-17T08:32:59.579Z,99.90
2019-03-17T08:35:28.301Z,99.90
2019-03-17T08:37:57.046Z,99.90
2019-03-17T08:40:25.970Z,99.90
2019-03-17T08:42:54.851Z,99.90
2019-03-17T08:45:23.599Z,99.90
2019-03-17T08:47:57.873Z,99.90
2019-03-17T08:50:23.210Z,99.90
2019-03-17T08:52:51.926Z,99.90
2019-03-17T08:55:20.630Z,99.90
2019-03-17T08:57:49.584Z,99.90
2019-03-17T09:00:21.909Z,99.90
2019-03-17T09:02:50.644Z,99.90
2019-03-17T09:05:19.551Z,99.90
2019-03-17T09:07:48.402Z,99.90
2019-03-17T09:10:17.430Z,99.90
2019-03-17T09:12:46.090Z,99.90
2019-03-17T09:15:14.941Z,99.90
2019-03-17T09:17:43.508Z,99.90
2019-03-17T09:20:13.549Z,99.90
2019-03-17T09:22:41.953Z,99.90
2019-03-17T09:25:11.132Z,99.90
2019-03-17T09:27:39.531Z,99.90
2019-03-17T09:30:15.664Z,99.90
2019-03-17T09:32:44.110Z,99.90
2019-03-17T09:35:12.514Z,99.90
2019-03-17T09:37:40.984Z,98.40
2019-03-17T09:40:13.717Z,96.70
2019-03-17T09:42:42.121Z,97.00
2019-03-17T09:45:12.145Z,96.30
2019-03-17T09:47:41.376Z,96.20
2019-03-17T09:50:12.942Z,95.50
2019-03-17T09:52:41.406Z,94.20
2019-03-17T09:55:10.805Z,95.10
2019-03-17T09:57:39.291Z,95.60
2019-03-17T10:00:10.853Z,95.10
2019-03-17T10:02:39.313Z,95.20
2019-03-17T10:05:09.149Z,94.00
2019-03-17T10:07:37.618Z,95.00
2019-03-17T10:10:12.177Z,93.90
2019-03-17T10:12:40.575Z,93.50
2019-03-17T10:15:11.677Z,93.00
2019-03-17T10:17:40.096Z,92.70
2019-03-17T10:20:11.746Z,92.90
2019-03-17T10:22:40.222Z,92.20
2019-03-17T10:25:10.480Z,92.40
2019-03-17T10:27:38.875Z,91.70
2019-03-17T10:30:10.878Z,92.10
2019-03-17T10:32:39.283Z,92.50
2019-03-17T10:35:07.756Z,91.60
2019-03-17T10:37:36.232Z,90.70
2019-03-17T10:40:10.588Z,90.70
2019-03-17T10:42:38.986Z,91.00
2019-03-17T10:45:09.394Z,90.70
2019-03-17T10:47:37.866Z,90.20
2019-03-17T10:50:11.798Z,87.10
2019-03-17T10:52:40.283Z,87.60
2019-03-17T10:55:09.816Z,90.10
2019-03-17T10:57:38.245Z,88.80
2019-03-17T11:00:22.143Z,89.00
2019-03-17T11:02:50.553Z,89.40
2019-03-17T11:05:19.015Z,87.10
2019-03-17T11:07:48.213Z,86.90
2019-03-17T11:10:16.978Z,88.00
2019-03-17T11:12:45.444Z,88.40
2019-03-17T11:15:18.320Z,88.30
2019-03-17T11:17:46.784Z,87.60
2019-03-17T11:20:15.443Z,89.70
2019-03-17T11:22:43.837Z,89.00
2019-03-17T11:25:18.928Z,88.30
2019-03-17T11:27:47.518Z,88.50
2019-03-17T11:30:17.103Z,88.40
2019-03-17T11:32:45.504Z,85.20
2019-03-17T11:35:13.937Z,83.40
2019-03-17T11:37:42.377Z,81.60
2019-03-17T11:40:18.974Z,80.70
2019-03-17T11:42:49.771Z,80.10
2019-03-17T11:45:18.203Z,79.80
2019-03-17T11:47:47.106Z,79.00
2019-03-17T11:50:19.614Z,78.20
2019-03-17T11:52:48.195Z,75.70
2019-03-17T11:55:16.781Z,76.20
2019-03-17T11:57:45.416Z,75.30
2019-03-17T12:00:18.412Z,74.30
2019-03-17T12:02:46.932Z,74.70
2019-03-17T12:05:15.342Z,74.20
2019-03-17T12:07:44.065Z,72.60
2019-03-17T12:10:20.631Z,72.90
2019-03-17T12:12:49.074Z,69.10
2019-03-17T12:15:20.565Z,68.10
2019-03-17T12:17:48.965Z,70.10
2019-03-17T12:20:17.452Z,70.50
2019-03-17T12:22:45.849Z,71.00
2019-03-17T12:25:15.826Z,70.40
2019-03-17T12:27:44.718Z,66.80
2019-03-17T12:30:19.026Z,66.90
2019-03-17T12:32:47.803Z,63.50
2019-03-17T12:35:16.246Z,66.30
2019-03-17T12:37:44.659Z,61.70
2019-03-17T12:40:13.240Z,54.60
2019-03-17T12:42:42.845Z,49.50
2019-03-17T12:45:11.979Z,48.00
2019-03-17T12:47:40.378Z,47.30
2019-03-17T12:50:14.550Z,49.90
2019-03-17T12:52:42.953Z,50.40
2019-03-17T12:55:11.353Z,51.80
2019-03-17T12:57:39.796Z,52.10
2019-03-17T13:00:25.605Z,49.00
2019-03-17T13:02:54.053Z,49.10
2019-03-17T13:05:22.439Z,47.20
2019-03-17T13:07:51.847Z,47.20
2019-03-17T13:10:23.497Z,48.10
2019-03-17T13:12:51.964Z,48.10
2019-03-17T13:15:20.367Z,45.20
2019-03-17T13:17:48.804Z,44.60
2019-03-17T13:20:18.458Z,45.60
2019-03-17T13:22:46.911Z,49.70
2019-03-17T13:25:15.416Z,48.40
2019-03-17T13:27:43.823Z,50.30
2019-03-17T13:30:13.978Z,48.00
2019-03-17T13:32:42.477Z,44.40
2019-03-17T13:35:11.311Z,42.60
2019-03-17T13:37:39.738Z,44.60
2019-03-17T13:40:28.389Z,46.10
2019-03-17T13:42:48.204Z,46.20
2019-03-17T13:45:16.674Z,46.00
2019-03-17T13:47:45.077Z,45.30
2019-03-17T13:50:18.329Z,41.90
2019-03-17T13:52:46.803Z,41.90
2019-03-17T13:55:15.264Z,42.30
2019-03-17T13:57:49.718Z,43.90
2019-03-17T14:00:18.130Z,44.40
2019-03-17T14:02:46.525Z,44.90
2019-03-17T14:05:14.968Z,46.10
2019-03-17T14:07:43.400Z,47.50
2019-03-17T14:10:17.425Z,46.90
2019-03-17T14:12:45.909Z,48.00
2019-03-17T14:15:15.309Z,49.60
2019-03-17T14:17:44.047Z,56.10
2019-03-17T14:20:14.796Z,63.60
2019-03-17T14:22:43.192Z,68.20
2019-03-17T14:25:28.856Z,67.50
2019-03-17T14:27:57.294Z,64.20
2019-03-17T14:30:25.683Z,61.90
2019-03-17T14:32:54.114Z,60.10
2019-03-17T14:35:22.515Z,59.20
2019-03-17T14:37:50.957Z,63.60
2019-03-17T14:40:19.444Z,67.30
2019-03-17T14:42:51.183Z,71.60
2019-03-17T14:45:19.684Z,74.00
2019-03-17T14:47:48.251Z,70.50
2019-03-17T14:50:18.815Z,73.10
2019-03-17T14:52:47.230Z,73.80
2019-03-17T14:55:15.809Z,72.70
2019-03-17T14:57:44.276Z,69.70
2019-03-17T15:00:18.532Z,66.10
2019-03-17T15:02:47.176Z,61.80
2019-03-17T15:05:15.693Z,61.80
2019-03-17T15:07:44.165Z,62.70
2019-03-17T15:10:21.206Z,64.80
2019-03-17T15:12:49.984Z,67.60
2019-03-17T15:15:20.393Z,69.70
2019-03-17T15:17:48.794Z,71.90
2019-03-17T15:20:19.751Z,72.90
2019-03-17T15:22:48.169Z,73.80
2019-03-17T15:25:16.735Z,76.30
2019-03-17T15:27:45.247Z,77.60
2019-03-17T15:30:24.791Z,78.90
2019-03-17T15:32:53.279Z,78.50
2019-03-17T15:35:21.686Z,84.80
2019-03-17T15:37:50.097Z,90.50
2019-03-17T15:40:20.825Z,91.70
2019-03-17T15:42:49.223Z,93.60
2019-03-17T15:45:19.666Z,94.90
2019-03-17T15:47:48.104Z,96.30
2019-03-17T15:50:24.005Z,96.00
2019-03-17T15:52:52.409Z,97.50
2019-03-17T15:55:21.126Z,97.90
2019-03-17T15:57:49.592Z,99.20
2019-03-17T16:00:25.371Z,99.30
2019-03-17T16:02:49.992Z,98.20
2019-03-17T16:05:18.874Z,97.10
2019-03-17T16:07:47.346Z,96.10
2019-03-17T16:10:24.225Z,96.30
2019-03-17T16:12:52.622Z,96.20
2019-03-17T16:15:21.146Z,95.90
2019-03-17T16:17:49.630Z,95.90
2019-03-17T16:20:23.291Z,95.20
2019-03-17T16:22:51.918Z,95.30
2019-03-17T16:25:22.402Z,95.10
2019-03-17T16:27:50.828Z,95.10
2019-03-17T16:30:24.286Z,94.90
2019-03-17T16:32:52.726Z,95.70
2019-03-17T16:35:21.395Z,95.20
2019-03-17T16:37:49.837Z,94.70
2019-03-17T16:40:21.310Z,94.70
2019-03-17T16:42:49.714Z,95.40
2019-03-17T16:45:18.785Z,93.90
2019-03-17T16:47:47.276Z,93.20
2019-03-17T16:50:22.532Z,92.70
2019-03-17T16:52:50.967Z,92.60
2019-03-17T16:55:19.800Z,92.90
2019-03-17T16:57:48.195Z,93.40
2019-03-17T17:00:21.896Z,93.50
2019-03-17T17:02:51.082Z,94.40
2019-03-17T17:05:20.606Z,96.00
2019-03-17T17:07:49.012Z,95.90
2019-03-17T17:10:19.288Z,96.70
2019-03-17T17:12:48.102Z,97.90
2019-03-17T17:15:18.742Z,97.10
2019-03-17T17:17:47.141Z,96.10
2019-03-17T17:20:17.671Z,95.90
2019-03-17T17:22:46.091Z,95.60
2019-03-17T17:25:14.498Z,96.10
2019-03-17T17:27:42.890Z,96.50
2019-03-17T17:30:18.435Z,95.90
2019-03-17T17:32:46.834Z,95.80
2019-03-17T17:35:15.231Z,96.50
2019-03-17T17:37:44.155Z,95.70
2019-03-17T17:40:18.430Z,95.90
2019-03-17T17:42:46.830Z,95.80
2019-03-17T17:45:24.445Z,96.60
2019-03-17T17:47:52.842Z,96.60
2019-03-17T17:50:24.918Z,96.50
2019-03-17T17:52:53.359Z,96.60
2019-03-17T17:55:21.762Z,96.90
2019-03-17T17:57:52.679Z,96.80
2019-03-17T18:00:24.877Z,95.50
2019-03-17T18:02:53.294Z,95.60
2019-03-17T18:05:21.834Z,95.00
2019-03-17T18:07:50.245Z,95.30
2019-03-17T18:10:19.083Z,95.20
2019-03-17T18:12:47.550Z,95.60
2019-03-17T18:15:21.245Z,95.80
2019-03-17T18:17:49.642Z,96.10
2019-03-17T18:20:18.317Z,96.70
2019-03-17T18:22:46.788Z,97.30
2019-03-17T18:25:19.774Z,97.60
2019-03-17T18:27:48.296Z,97.50
2019-03-17T18:30:26.918Z,96.60
2019-03-17T18:32:55.368Z,95.10
2019-03-17T18:35:23.761Z,95.20
2019-03-17T18:37:52.432Z,95.80
2019-03-17T18:40:21.836Z,96.30
2019-03-17T18:42:50.308Z,97.20
2019-03-17T18:45:23.612Z,97.50
2019-03-17T18:47:52.059Z,98.10
2019-03-17T18:50:21.259Z,98.40
2019-03-17T18:52:49.962Z,98.50
2019-03-17T18:55:18.391Z,98.80
2019-03-17T18:57:46.779Z,99.30
2019-03-17T19:00:22.649Z,99.80
2019-03-17T19:02:51.097Z,99.90
2019-03-17T19:05:20.505Z,99.90
2019-03-17T19:07:49.030Z,99.90
2019-03-17T19:10:18.487Z,99.90
2019-03-17T19:12:46.933Z,99.90
2019-03-17T19:15:24.650Z,99.90
2019-03-17T19:17:53.056Z,99.90
2019-03-17T19:20:22.094Z,99.90
2019-03-17T19:22:50.522Z,99.90
2019-03-17T19:25:21.028Z,99.90
2019-03-17T19:27:49.499Z,99.90
2019-03-17T19:30:18.683Z,99.90
2019-03-17T19:32:47.699Z,99.90
2019-03-17T19:35:16.538Z,99.90
2019-03-17T19:37:45.198Z,99.90
2019-03-17T19:40:18.199Z,99.90
2019-03-17T19:42:58.112Z,99.90
2019-03-17T19:45:16.753Z,99.90
2019-03-17T19:47:45.408Z,99.90
2019-03-17T19:50:18.197Z,99.90
2019-03-17T19:52:46.606Z,99.90
2019-03-17T19:55:15.015Z,99.90
2019-03-17T19:57:43.684Z,99.90
2019-03-17T20:00:16.934Z,99.90
2019-03-17T20:02:47.568Z,99.90
2019-03-17T20:05:15.751Z,99.90
2019-03-17T20:07:44.159Z,99.90
2019-03-17T20:10:18.055Z,99.90
2019-03-17T20:12:46.490Z,99.90
2019-03-17T20:15:14.889Z,99.90
2019-03-17T20:17:43.281Z,99.90
2019-03-17T20:20:13.934Z,99.90
2019-03-17T20:22:42.342Z,99.90
2019-03-17T20:25:10.807Z,99.90
2019-03-17T20:27:39.296Z,99.90
2019-03-17T20:30:15.741Z,99.90
2019-03-17T20:32:44.177Z,99.90
2019-03-17T20:35:13.490Z,99.90
2019-03-17T20:37:42.239Z,99.90
2019-03-17T20:40:17.324Z,99.90
2019-03-17T20:42:46.001Z,99.90
2019-03-17T20:45:15.939Z,99.90
2019-03-17T20:47:44.333Z,99.90
2019-03-17T20:50:15.922Z,99.90
2019-03-17T20:52:44.325Z,99.90
2019-03-17T20:55:13.162Z,99.90
2019-03-17T20:57:41.998Z,99.70
2019-03-17T21:00:20.145Z,99.90
2019-03-17T21:02:48.635Z,99.60
2019-03-17T21:05:17.043Z,99.70
2019-03-17T21:07:45.425Z,99.70
2019-03-17T21:10:15.166Z,99.40
2019-03-17T21:12:43.553Z,99.40
2019-03-17T21:15:16.554Z,99.30
2019-03-17T21:17:45.214Z,99.30
2019-03-17T21:20:15.358Z,99.20
2019-03-17T21:22:43.770Z,99.30
2019-03-17T21:25:12.729Z,99.80
2019-03-17T21:27:41.176Z,99.50
2019-03-17T21:30:15.814Z,99.50
2019-03-17T21:32:44.210Z,99.60
2019-03-17T21:35:12.926Z,99.50
2019-03-17T21:37:41.322Z,99.40
2019-03-17T21:40:11.370Z,99.30
2019-03-17T21:42:39.875Z,99.20
2019-03-17T21:45:12.386Z,99.20
2019-03-17T21:47:40.796Z,99.30
2019-03-17T21:50:17.412Z,98.90
2019-03-17T21:52:45.856Z,98.90
2019-03-17T21:55:14.809Z,98.30
2019-03-17T21:57:43.213Z,98.10
2019-03-17T22:00:21.148Z,98.30
2019-03-17T22:02:49.549Z,97.80
2019-03-17T22:05:17.979Z,98.00
2019-03-17T22:07:51.135Z,98.30
2019-03-17T22:10:18.777Z,98.50
2019-03-17T22:12:47.175Z,98.60
2019-03-17T22:15:16.935Z,98.80
2019-03-17T22:17:45.336Z,98.80
2019-03-17T22:20:14.681Z,99.00
2019-03-17T22:22:43.173Z,99.20
2019-03-17T22:25:13.508Z,99.50
2019-03-17T22:27:42.206Z,99.20
2019-03-17T22:30:20.620Z,99.40
2019-03-17T22:32:49.008Z,99.40
2019-03-17T22:35:17.531Z,99.50
2019-03-17T22:37:46.099Z,99.60
2019-03-17T22:40:18.352Z,99.60
2019-03-17T22:42:46.932Z,99.70
2019-03-17T22:45:16.075Z,99.80
2019-03-17T22:47:44.471Z,99.90
2019-03-17T22:50:19.440Z,99.90
2019-03-17T22:52:47.865Z,99.90
2019-03-17T22:55:16.527Z,99.90
2019-03-17T22:57:45.189Z,99.90
2019-03-17T23:00:26.342Z,99.90
2019-03-17T23:02:54.764Z,99.90
2019-03-17T23:05:23.169Z,99.90
2019-03-17T23:07:51.561Z,99.90
2019-03-17T23:10:20.254Z,99.90
2019-03-17T23:12:48.655Z,99.90
2019-03-17T23:15:17.055Z,99.90
2019-03-17T23:17:45.509Z,99.90
2019-03-17T23:20:17.205Z,99.90
2019-03-17T23:22:45.593Z,99.90
2019-03-17T23:25:14.038Z,99.90
2019-03-17T23:27:42.431Z,99.90
2019-03-17T23:30:13.525Z,99.90
2019-03-17T23:32:41.948Z,99.90
2019-03-17T23:35:10.341Z,99.90
2019-03-17T23:37:38.747Z,99.90
2019-03-17T23:40:12.980Z,99.90
2019-03-17T23:42:41.364Z,99.90
2019-03-17T23:45:11.270Z,99.90
2019-03-17T23:47:39.853Z,99.90
2019-03-17T23:50:09.991Z,99.90
2019-03-17T23:52:38.388Z,99.90
2019-03-17T23:55:10.041Z,99.90
2019-03-17T23:57:38.498Z,99.90
